Time;durP1;ratioP1;P1;durP2;ratioP2;P2;SDS_P1;SDS_P2;PMS_P1;PMS_P2;Temp;Humidity;BMP_temperature;BMP_pressure;BME280_temperature;BME280_humidity;BME280_pressure;Samples;Min_cycle;Max_cycle;Signal;HPM_P1;HPM_P2
2022/12/23 00:01:02;;;;;;;0.30;0.30;;;9.90;99.90;;;;;;5074077;28;20865;-71
2022/12/23 00:03:29;;;;;;;0.30;0.30;;;9.90;99.90;;;;;;5073936;28;20419;-71
2022/12/23 00:05:54;;;;;;;0.40;0.40;;;9.90;99.90;;;;;;5073726;28;20174;-72
2022/12/23 00:08:21;;;;;;;0.30;0.30;;;10.00;99.90;;;;;;5073993;28;20540;-72
2022/12/23 00:10:49;;;;;;;0.30;0.30;;;10.00;99.90;;;;;;5072643;28;20559;-71
2022/12/23 00:16:13;;;;;;;0.30;0.30;;;10.00;99.90;;;;;;5073709;28;20231;-71
2022/12/23 00:18:39;;;;;;;0.30;0.30;;;10.10;99.90;;;;;;5073934;28;20183;-72
2022/12/23 00:21:07;;;;;;;0.65;0.40;;;10.20;99.90;;;;;;5073587;28;20177;-73
2022/12/23 00:23:34;;;;;;;0.30;0.30;;;10.30;99.90;;;;;;5073561;28;20177;-72
2022/12/23 00:26:01;;;;;;;0.60;0.60;;;10.30;99.90;;;;;;5073495;28;20627;-72
2022/12/23 00:28:29;;;;;;;0.30;0.30;;;10.30;99.90;;;;;;5073814;28;20185;-72
2022/12/23 00:30:58;;;;;;;0.30;0.30;;;10.30;99.90;;;;;;5073531;28;20711;-71
2022/12/23 00:33:27;;;;;;;0.30;0.30;;;10.20;99.90;;;;;;5073618;28;20246;-72
2022/12/23 00:35:53;;;;;;;0.30;0.30;;;10.20;99.90;;;;;;5073307;28;20222;-72
2022/12/23 00:43:58;;;;;;;0.30;0.30;;;10.70;99.90;;;;;;5073928;28;20670;-72
2022/12/23 00:46:24;;;;;;;0.30;0.30;;;10.60;99.90;;;;;;5073443;28;20260;-71
2022/12/23 00:51:34;;;;;;;0.30;0.30;;;10.80;99.90;;;;;;5073551;28;20204;-72
2022/12/23 00:54:00;;;;;;;0.40;0.40;;;10.80;99.90;;;;;;5073143;28;20241;-72
2022/12/23 00:56:25;;;;;;;7.25;0.65;;;10.90;99.90;;;;;;5073124;28;20257;-73
2022/12/23 00:58:51;;;;;;;0.40;0.40;;;11.00;99.90;;;;;;5072123;28;20260;-72
2022/12/23 01:06:46;;;;;;;0.30;0.30;;;11.00;99.90;;;;;;5073653;28;20193;-72
2022/12/23 01:09:12;;;;;;;0.30;0.30;;;11.00;99.90;;;;;;5077029;28;20186;-72
2022/12/23 01:11:38;;;;;;;0.30;0.30;;;10.90;99.90;;;;;;5077180;28;20417;-72
2022/12/23 01:14:04;;;;;;;0.37;0.37;;;10.70;99.90;;;;;;5076936;28;21015;-72
2022/12/23 01:16:30;;;;;;;0.40;0.40;;;10.70;99.90;;;;;;5077152;28;20170;-72
2022/12/23 01:18:55;;;;;;;0.30;0.30;;;10.80;99.90;;;;;;5076922;28;20262;-72
2022/12/23 01:21:22;;;;;;;0.30;0.30;;;11.00;99.90;;;;;;5077023;28;20173;-72
2022/12/23 01:23:48;;;;;;;0.30;0.30;;;11.10;99.90;;;;;;5076836;28;20568;-72
2022/12/23 01:26:13;;;;;;;0.30;0.30;;;11.20;99.90;;;;;;5076728;28;20177;-72
2022/12/23 01:28:39;;;;;;;0.30;0.30;;;11.10;99.90;;;;;;5075613;28;20174;-71
2022/12/23 01:31:08;;;;;;;0.70;0.53;;;11.20;99.90;;;;;;5076819;28;20196;-72
2022/12/23 01:33:33;;;;;;;0.40;0.40;;;11.20;99.90;;;;;;5076610;28;20670;-72
2022/12/23 01:36:05;;;;;;;0.30;0.30;;;11.30;99.90;;;;;;5076628;28;20207;-71
2022/12/23 01:38:31;;;;;;;0.40;0.40;;;11.40;99.90;;;;;;5076833;28;20173;-72
2022/12/23 01:40:57;;;;;;;0.30;0.30;;;11.40;99.90;;;;;;5076542;28;20223;-72
2022/12/23 01:43:42;;;;;;;0.40;0.40;;;11.40;99.90;;;;;;5076644;28;20253;-71
2022/12/23 01:46:08;;;;;;;0.30;0.30;;;11.50;99.90;;;;;;5076546;28;20256;-71
2022/12/23 01:48:35;;;;;;;0.30;0.30;;;11.40;99.90;;;;;;5076657;28;20614;-72
2022/12/23 01:51:05;;;;;;;0.40;0.40;;;11.40;99.90;;;;;;5076516;28;20430;-72
2022/12/23 01:53:35;;;;;;;0.30;0.30;;;11.40;99.90;;;;;;5076385;28;20258;-72
2022/12/23 01:56:18;;;;;;;0.40;0.40;;;11.40;99.90;;;;;;5076313;28;20439;-71
2022/12/23 01:58:49;;;;;;;0.30;0.30;;;11.50;99.90;;;;;;5075150;28;20184;-71
2022/12/23 02:04:03;;;;;;;0.30;0.30;;;11.50;99.90;;;;;;5076750;28;20195;-72
2022/12/23 02:09:34;;;;;;;0.30;0.30;;;11.50;99.90;;;;;;5076499;28;20204;-72
2022/12/23 02:12:31;;;;;;;0.30;0.30;;;11.60;99.90;;;;;;5076326;28;20165;-71
2022/12/23 02:18:34;;;;;;;0.30;0.30;;;11.50;99.90;;;;;;5076368;28;20942;-71
2022/12/23 02:21:21;;;;;;;0.30;0.30;;;11.50;99.90;;;;;;5075482;28;20427;-72
2022/12/23 02:23:55;;;;;;;0.30;0.30;;;11.60;99.90;;;;;;5075943;28;20476;-71
2022/12/23 02:26:57;;;;;;;0.30;0.30;;;11.60;99.90;;;;;;5075840;28;20442;-73
2022/12/23 02:29:25;;;;;;;0.30;0.30;;;11.60;99.90;;;;;;5076001;28;20416;-73
2022/12/23 02:32:06;;;;;;;0.30;0.30;;;11.50;99.90;;;;;;5075765;28;20252;-73
2022/12/23 02:34:59;;;;;;;0.45;0.45;;;11.40;99.90;;;;;;5074349;28;20209;-72
2022/12/23 02:37:50;;;;;;;0.30;0.30;;;11.30;99.90;;;;;;5075792;28;20201;-72
2022/12/23 02:40:25;;;;;;;0.30;0.30;;;11.40;99.90;;;;;;5075370;28;20281;-72
2022/12/23 02:42:59;;;;;;;0.30;0.30;;;11.40;99.90;;;;;;5075444;28;20922;-72
2022/12/23 02:45:31;;;;;;;0.30;0.30;;;11.40;99.90;;;;;;5075449;28;20794;-72
2022/12/23 02:48:20;;;;;;;0.30;0.30;;;11.50;99.90;;;;;;5075687;28;20170;-71
2022/12/23 02:50:47;;;;;;;0.30;0.30;;;11.60;99.90;;;;;;5075383;28;20457;-71
2022/12/23 02:53:23;;;;;;;0.30;0.30;;;11.60;99.90;;;;;;5075327;28;20201;-71
2022/12/23 02:55:52;;;;;;;0.30;0.30;;;11.60;99.90;;;;;;5075060;28;20439;-72
2022/12/23 02:58:21;;;;;;;0.40;0.40;;;11.50;99.90;;;;;;5075221;28;20169;-72
2022/12/23 03:00:48;;;;;;;0.85;0.75;;;11.60;99.90;;;;;;5075067;28;20556;-71
2022/12/23 03:03:15;;;;;;;0.40;0.40;;;11.70;99.90;;;;;;5075216;28;20239;-72
2022/12/23 03:05:45;;;;;;;0.30;0.30;;;11.60;99.90;;;;;;5074912;28;20418;-71
2022/12/23 03:08:19;;;;;;;0.30;0.30;;;11.70;99.90;;;;;;5074566;28;20407;-70
2022/12/23 03:10:50;;;;;;;0.30;0.30;;;11.50;99.90;;;;;;5074919;28;20473;-72
2022/12/23 03:13:58;;;;;;;0.30;0.30;;;11.40;99.90;;;;;;5074863;28;20487;-72
2022/12/23 03:16:43;;;;;;;0.30;0.30;;;11.60;99.90;;;;;;5073490;28;20227;-71
2022/12/23 03:19:55;;;;;;;0.30;0.30;;;11.70;99.90;;;;;;5074784;28;20177;-71
2022/12/23 03:22:53;;;;;;;0.97;0.47;;;11.70;99.90;;;;;;5072646;28;20419;-71
2022/12/23 03:25:57;;;;;;;0.40;0.40;;;11.70;99.90;;;;;;5056892;28;20423;-72
2022/12/23 03:28:48;;;;;;;0.30;0.30;;;11.70;99.90;;;;;;5074560;28;20875;-71
2022/12/23 03:31:21;;;;;;;0.40;0.40;;;11.80;99.90;;;;;;5073430;28;20499;-71
2022/12/23 03:33:53;;;;;;;0.30;0.30;;;11.80;99.90;;;;;;5074792;28;20451;-71
2022/12/23 03:36:28;;;;;;;0.83;0.80;;;11.70;99.90;;;;;;5074211;28;20420;-72
2022/12/23 03:38:55;;;;;;;0.30;0.30;;;11.70;99.90;;;;;;5074486;28;20402;-72
2022/12/23 03:41:28;;;;;;;0.30;0.30;;;11.80;99.90;;;;;;5074281;28;20439;-73
2022/12/23 03:44:00;;;;;;;0.30;0.30;;;11.80;99.90;;;;;;5074543;28;20487;-71
2022/12/23 03:46:45;;;;;;;0.30;0.30;;;11.90;99.90;;;;;;5074466;28;20201;-72
2022/12/23 03:49:18;;;;;;;0.40;0.40;;;11.90;99.90;;;;;;5074624;28;20545;-72
2022/12/23 03:51:52;;;;;;;0.30;0.30;;;11.70;99.90;;;;;;5074090;28;20459;-72
2022/12/23 03:54:26;;;;;;;0.40;0.40;;;11.80;99.90;;;;;;5074136;28;20396;-72
2022/12/23 03:57:00;;;;;;;0.30;0.30;;;11.70;99.90;;;;;;5074062;28;20404;-73
2022/12/23 03:59:30;;;;;;;0.40;0.40;;;11.70;99.90;;;;;;5074077;28;20419;-71
2022/12/23 04:02:34;;;;;;;0.30;0.30;;;11.70;99.90;;;;;;5073922;28;20388;-72
2022/12/23 04:05:15;;;;;;;0.30;0.30;;;11.70;99.90;;;;;;5073466;28;20211;-73
2022/12/23 04:07:59;;;;;;;0.30;0.30;;;11.80;99.90;;;;;;5074105;28;20396;-71
2022/12/23 04:10:25;;;;;;;0.40;0.40;;;11.80;99.90;;;;;;5073962;28;20476;-72
2022/12/23 04:12:51;;;;;;;0.30;0.30;;;11.80;99.90;;;;;;5073730;28;20448;-72
2022/12/23 04:15:22;;;;;;;0.30;0.30;;;11.70;99.90;;;;;;5072348;28;20173;-71
2022/12/23 04:17:49;;;;;;;0.40;0.40;;;11.50;99.90;;;;;;5073931;28;20411;-72
2022/12/23 04:20:15;;;;;;;0.30;0.30;;;11.50;99.90;;;;;;5073750;28;20419;-73
2022/12/23 04:22:42;;;;;;;0.40;0.40;;;11.50;99.90;;;;;;5073711;28;20506;-72
2022/12/23 04:25:09;;;;;;;0.30;0.30;;;11.60;99.90;;;;;;5073539;28;20165;-71
2022/12/23 04:27:34;;;;;;;0.50;0.50;;;11.50;99.90;;;;;;5073585;28;20426;-72
2022/12/23 04:30:00;;;;;;;0.30;0.30;;;11.60;99.90;;;;;;5073871;28;20423;-73
2022/12/23 04:32:26;;;;;;;0.30;0.30;;;11.60;99.90;;;;;;5073761;28;20200;-72
2022/12/23 04:34:51;;;;;;;0.40;0.40;;;11.60;99.90;;;;;;5072119;28;20583;-72
2022/12/23 04:37:17;;;;;;;0.30;0.30;;;11.60;99.90;;;;;;5073432;28;20189;-72
2022/12/23 04:39:42;;;;;;;0.30;0.30;;;11.70;99.90;;;;;;5073511;28;20192;-72
2022/12/23 04:42:08;;;;;;;0.30;0.30;;;11.70;99.90;;;;;;5073059;28;20509;-72
2022/12/23 04:44:34;;;;;;;0.30;0.30;;;11.70;99.90;;;;;;5073285;28;20165;-72
2022/12/23 04:46:59;;;;;;;0.40;0.40;;;11.60;99.90;;;;;;5073360;28;20175;-72
2022/12/23 04:49:25;;;;;;;0.30;0.30;;;11.50;99.90;;;;;;5073480;28;20197;-72
2022/12/23 04:51:50;;;;;;;0.30;0.30;;;11.60;99.90;;;;;;5072057;28;20201;-71
2022/12/23 04:54:16;;;;;;;0.40;0.40;;;11.60;99.90;;;;;;5073134;28;20161;-72
2022/12/23 04:56:42;;;;;;;0.30;0.30;;;11.50;99.90;;;;;;5073336;28;20630;-72
2022/12/23 04:59:09;;;;;;;0.50;0.50;;;11.50;99.90;;;;;;5073292;28;20181;-73
2022/12/23 05:01:34;;;;;;;0.30;0.30;;;11.40;99.90;;;;;;5073393;28;20212;-71
2022/12/23 05:04:00;;;;;;;0.30;0.30;;;11.50;99.90;;;;;;5073346;28;20403;-71
2022/12/23 05:06:26;;;;;;;0.30;0.30;;;11.60;99.90;;;;;;5073379;28;20634;-72
2022/12/23 05:08:51;;;;;;;0.30;0.30;;;11.70;99.90;;;;;;5072036;28;20273;-72
2022/12/23 05:11:17;;;;;;;0.30;0.30;;;11.80;99.90;;;;;;5073144;28;20205;-72
2022/12/23 05:13:43;;;;;;;0.30;0.30;;;11.90;99.90;;;;;;5073150;28;20651;-71
2022/12/23 05:16:08;;;;;;;0.40;0.40;;;11.90;99.90;;;;;;5073076;28;20219;-73
2022/12/23 05:18:34;;;;;;;0.30;0.30;;;11.90;99.90;;;;;;5073414;28;20533;-72
2022/12/23 05:20:59;;;;;;;0.30;0.30;;;11.90;99.90;;;;;;5073004;28;20193;-72
2022/12/23 05:23:25;;;;;;;0.30;0.30;;;11.80;99.90;;;;;;5072952;28;20512;-72
2022/12/23 05:25:52;;;;;;;0.60;0.60;;;11.80;99.90;;;;;;5072942;28;20227;-72
2022/12/23 05:28:18;;;;;;;0.68;0.68;;;11.80;99.90;;;;;;5073251;28;20176;-72
2022/12/23 05:30:44;;;;;;;0.40;0.40;;;11.80;99.90;;;;;;5072940;28;20201;-72
2022/12/23 05:33:09;;;;;;;0.30;0.30;;;11.90;99.90;;;;;;5073029;28;20451;-73
2022/12/23 05:35:35;;;;;;;0.30;0.30;;;11.80;99.90;;;;;;5072860;28;20180;-71
2022/12/23 05:38:04;;;;;;;0.30;0.30;;;11.80;99.90;;;;;;5072645;28;20181;-72
2022/12/23 05:40:30;;;;;;;1.53;0.50;;;11.90;99.90;;;;;;5072822;28;20193;-74
2022/12/23 05:42:55;;;;;;;0.30;0.30;;;11.90;99.90;;;;;;5072887;28;20399;-72
2022/12/23 05:45:21;;;;;;;0.30;0.30;;;11.90;99.90;;;;;;5072784;28;20765;-72
2022/12/23 05:47:47;;;;;;;0.40;0.40;;;11.80;99.90;;;;;;5072989;28;20197;-72
2022/12/23 05:50:13;;;;;;;0.30;0.30;;;11.80;99.90;;;;;;5071472;28;20212;-72
2022/12/23 05:52:38;;;;;;;0.30;0.30;;;11.80;99.90;;;;;;5072678;28;20189;-72
2022/12/23 05:55:05;;;;;;;0.30;0.30;;;11.80;99.90;;;;;;5074225;28;20696;-73
2022/12/23 05:57:31;;;;;;;0.50;0.50;;;11.90;99.90;;;;;;5076361;28;20166;-72
2022/12/23 05:59:57;;;;;;;0.50;0.50;;;11.90;99.90;;;;;;5076455;28;20497;-72
2022/12/23 06:02:23;;;;;;;0.40;0.40;;;11.90;99.90;;;;;;5076264;28;20643;-72
2022/12/23 06:04:49;;;;;;;0.73;0.73;;;11.80;99.90;;;;;;5076151;28;20404;-73
2022/12/23 06:07:15;;;;;;;0.47;0.47;;;11.80;99.90;;;;;;5074810;28;20979;-72
2022/12/23 06:09:41;;;;;;;0.50;0.50;;;11.90;99.90;;;;;;5076215;28;20196;-71
2022/12/23 06:12:07;;;;;;;0.30;0.30;;;11.90;99.90;;;;;;5074766;28;20442;-72
2022/12/23 06:14:32;;;;;;;0.30;0.30;;;11.80;99.90;;;;;;5075955;28;20655;-72
2022/12/23 06:16:58;;;;;;;0.30;0.30;;;11.80;99.90;;;;;;5076095;28;20169;-72
2022/12/23 06:19:24;;;;;;;0.30;0.30;;;11.90;99.90;;;;;;5076048;28;20246;-72
2022/12/23 06:21:49;;;;;;;0.30;0.30;;;11.80;99.90;;;;;;5075878;28;20165;-71
2022/12/23 06:24:15;;;;;;;0.30;0.30;;;11.70;99.90;;;;;;5075686;28;20216;-72
2022/12/23 06:26:41;;;;;;;0.30;0.30;;;11.70;99.90;;;;;;5075866;28;20173;-73
2022/12/23 06:29:07;;;;;;;0.30;0.30;;;11.80;99.90;;;;;;5075819;28;20193;-72
2022/12/23 06:31:32;;;;;;;0.30;0.30;;;11.70;99.90;;;;;;5075757;28;20469;-73
2022/12/23 06:33:58;;;;;;;0.30;0.30;;;11.60;99.90;;;;;;5075767;28;20738;-71
2022/12/23 06:36:24;;;;;;;0.40;0.40;;;11.60;99.90;;;;;;5075488;28;20228;-72
2022/12/23 06:38:49;;;;;;;0.40;0.40;;;11.70;99.90;;;;;;5075501;28;20176;-73
2022/12/23 06:41:15;;;;;;;0.30;0.30;;;11.70;99.90;;;;;;5075713;28;20177;-72
2022/12/23 06:43:41;;;;;;;0.30;0.30;;;11.90;99.90;;;;;;5075730;28;20173;-73
2022/12/23 06:46:06;;;;;;;0.30;0.30;;;11.90;99.90;;;;;;5075461;28;20260;-73
2022/12/23 06:48:32;;;;;;;0.30;0.30;;;11.90;99.90;;;;;;5075592;28;20256;-72
2022/12/23 06:50:57;;;;;;;0.30;0.30;;;12.00;99.90;;;;;;5075480;28;20269;-73
2022/12/23 06:53:23;;;;;;;0.33;0.33;;;12.00;99.90;;;;;;5073999;28;20209;-72
2022/12/23 06:55:49;;;;;;;0.67;0.40;;;11.90;99.90;;;;;;5075202;28;20171;-72
2022/12/23 06:58:14;;;;;;;0.40;0.40;;;11.70;99.90;;;;;;5075320;28;20200;-72
2022/12/23 07:00:40;;;;;;;0.30;0.30;;;11.80;99.90;;;;;;5075115;28;20212;-72
2022/12/23 07:03:06;;;;;;;0.30;0.30;;;11.80;99.90;;;;;;5075130;28;20592;-72
2022/12/23 07:05:34;;;;;;;0.30;0.30;;;11.90;99.90;;;;;;5072741;28;20181;-73
2022/12/23 07:08:00;;;;;;;0.40;0.40;;;11.90;99.90;;;;;;5075376;28;20491;-73
2022/12/23 07:10:25;;;;;;;0.30;0.30;;;11.90;99.90;;;;;;5073920;28;20478;-72
2022/12/23 07:12:51;;;;;;;0.60;0.60;;;11.90;99.90;;;;;;5073859;28;20232;-72
2022/12/23 07:15:17;;;;;;;0.40;0.40;;;11.90;99.90;;;;;;5072424;28;20162;-71
2022/12/23 07:17:42;;;;;;;0.40;0.40;;;11.90;99.90;;;;;;5074945;28;20256;-73
2022/12/23 07:20:09;;;;;;;0.30;0.30;;;12.00;99.90;;;;;;5074718;28;20242;-73
2022/12/23 07:22:34;;;;;;;0.30;0.30;;;12.00;99.90;;;;;;5072937;28;20594;-72
2022/12/23 07:25:00;;;;;;;0.30;0.30;;;12.00;99.90;;;;;;5074862;28;20411;-72
2022/12/23 07:27:26;;;;;;;0.30;0.30;;;12.00;99.90;;;;;;5074983;28;20174;-72
2022/12/23 07:29:51;;;;;;;0.30;0.30;;;12.00;99.90;;;;;;5075004;28;20635;-72
2022/12/23 07:32:17;;;;;;;0.30;0.30;;;12.10;99.90;;;;;;5074428;28;20200;-72
2022/12/23 07:34:43;;;;;;;0.30;0.30;;;12.00;99.90;;;;;;5074642;28;20657;-72
2022/12/23 07:37:08;;;;;;;0.30;0.30;;;12.00;99.90;;;;;;5074428;28;20802;-72
2022/12/23 07:39:34;;;;;;;0.30;0.30;;;11.90;99.90;;;;;;5074398;28;20255;-72
2022/12/23 07:41:59;;;;;;;0.30;0.30;;;11.80;99.90;;;;;;5074613;28;20220;-72
2022/12/23 07:44:25;;;;;;;0.30;0.30;;;11.70;99.90;;;;;;5074382;28;20174;-71
2022/12/23 07:46:50;;;;;;;0.40;0.40;;;11.80;99.90;;;;;;5074876;28;20169;-71
2022/12/23 07:49:16;;;;;;;0.30;0.30;;;11.90;99.90;;;;;;5074411;28;20271;-70
2022/12/23 07:51:42;;;;;;;0.30;0.30;;;12.00;99.90;;;;;;5073073;28;20623;-72
2022/12/23 07:54:10;;;;;;;0.30;0.30;;;12.00;99.90;;;;;;5074106;28;20554;-71
2022/12/23 07:56:36;;;;;;;0.30;0.30;;;12.00;99.90;;;;;;5074043;28;20165;-73
2022/12/23 07:59:01;;;;;;;0.30;0.30;;;12.00;99.90;;;;;;5074414;28;20447;-71
2022/12/23 08:01:27;;;;;;;0.63;0.60;;;12.00;99.90;;;;;;5074655;28;20169;-72
2022/12/23 08:03:53;;;;;;;0.80;0.77;;;12.00;99.90;;;;;;5073365;28;20181;-71
2022/12/23 08:06:18;;;;;;;1.27;1.17;;;12.00;99.90;;;;;;5072487;28;20196;-71
2022/12/23 08:08:45;;;;;;;0.40;0.40;;;12.00;99.90;;;;;;5074345;28;20408;-70
2022/12/23 08:11:12;;;;;;;1.00;0.70;;;12.10;99.90;;;;;;5073960;28;20238;-70
2022/12/23 08:13:40;;;;;;;0.30;0.30;;;12.00;99.90;;;;;;5072793;28;20459;-71
2022/12/23 08:16:07;;;;;;;0.40;0.40;;;12.00;99.90;;;;;;5070167;28;20409;-72
2022/12/23 08:18:35;;;;;;;1.07;0.60;;;12.10;99.90;;;;;;5070946;28;20420;-72
2022/12/23 08:21:04;;;;;;;1.17;1.17;;;12.20;99.90;;;;;;5072032;28;20432;-70
2022/12/23 08:23:31;;;;;;;0.30;0.30;;;12.20;99.90;;;;;;5073631;28;20403;-70
2022/12/23 08:26:12;;;;;;;0.30;0.30;;;12.10;99.90;;;;;;5073755;28;20411;-70
2022/12/23 08:28:39;;;;;;;0.40;0.40;;;12.20;99.90;;;;;;5071626;28;20403;-72
2022/12/23 08:31:25;;;;;;;0.40;0.40;;;12.20;99.90;;;;;;5074016;28;20962;-69
2022/12/23 08:33:54;;;;;;;0.93;0.60;;;12.30;99.90;;;;;;5072345;28;20464;-72
2022/12/23 08:36:46;;;;;;;0.50;0.50;;;12.20;99.90;;;;;;5071618;28;20438;-70
2022/12/23 08:39:12;;;;;;;0.70;0.70;;;12.20;99.90;;;;;;5073490;28;20856;-70
2022/12/23 08:41:42;;;;;;;0.30;0.30;;;12.30;99.90;;;;;;5073473;28;20400;-70
2022/12/23 08:44:08;;;;;;;0.40;0.40;;;12.40;99.90;;;;;;5073416;28;20411;-69
2022/12/23 08:46:35;;;;;;;0.30;0.30;;;12.30;99.90;;;;;;5073401;28;20404;-70
2022/12/23 08:49:00;;;;;;;0.50;0.50;;;12.30;99.90;;;;;;5073443;28;20482;-70
2022/12/23 08:51:27;;;;;;;0.40;0.40;;;12.30;99.90;;;;;;5073419;28;20416;-70
2022/12/23 08:53:57;;;;;;;0.70;0.43;;;12.30;99.90;;;;;;5073406;28;20198;-70
2022/12/23 08:56:24;;;;;;;0.30;0.30;;;12.30;99.90;;;;;;5071918;28;20469;-70
2022/12/23 08:58:52;;;;;;;0.40;0.40;;;12.30;99.90;;;;;;5073449;28;20418;-70
2022/12/23 09:01:20;;;;;;;0.30;0.30;;;12.20;99.90;;;;;;5073506;28;20403;-69
2022/12/23 09:03:46;;;;;;;0.40;0.40;;;12.10;99.90;;;;;;5073378;28;20439;-69
2022/12/23 09:06:15;;;;;;;0.40;0.40;;;11.90;99.90;;;;;;5073240;28;20503;-70
2022/12/23 09:08:41;;;;;;;0.70;0.40;;;12.10;99.90;;;;;;5073123;28;20411;-70
2022/12/23 09:11:12;;;;;;;0.30;0.30;;;12.20;99.90;;;;;;5073125;28;20437;-70
2022/12/23 09:13:38;;;;;;;0.30;0.30;;;12.20;99.90;;;;;;5073203;28;20530;-70
2022/12/23 09:16:05;;;;;;;1.10;1.00;;;12.20;99.90;;;;;;5072974;28;20498;-70
2022/12/23 09:18:31;;;;;;;0.83;0.73;;;12.00;99.90;;;;;;5073254;28;20641;-69
2022/12/23 09:20:58;;;;;;;0.30;0.30;;;12.10;99.90;;;;;;5073221;28;20431;-70
2022/12/23 09:23:24;;;;;;;0.30;0.30;;;12.20;99.90;;;;;;5071843;28;20602;-70
2022/12/23 09:25:49;;;;;;;0.30;0.30;;;12.30;99.90;;;;;;5072982;28;20414;-70
2022/12/23 09:28:15;;;;;;;0.40;0.40;;;12.30;99.90;;;;;;5073449;28;20311;-70
2022/12/23 09:30:40;;;;;;;0.50;0.50;;;12.20;99.90;;;;;;5076915;28;20189;-70
2022/12/23 09:33:06;;;;;;;0.30;0.30;;;12.20;99.90;;;;;;5076882;28;20193;-70
2022/12/23 09:35:32;;;;;;;0.30;0.30;;;12.30;99.90;;;;;;5076442;28;20591;-70
2022/12/23 09:37:57;;;;;;;0.40;0.40;;;12.30;99.90;;;;;;5076515;28;20267;-70
2022/12/23 09:40:23;;;;;;;0.77;0.77;;;12.40;99.90;;;;;;5076687;28;20916;-69
2022/12/23 09:43:16;;;;;;;0.30;0.30;;;12.40;99.90;;;;;;5076709;28;20666;-70
2022/12/23 09:46:04;;;;;;;0.30;0.30;;;12.50;99.90;;;;;;5076505;28;20552;-70
2022/12/23 09:48:57;;;;;;;0.40;0.40;;;12.60;99.90;;;;;;5076995;28;20478;-69
2022/12/23 09:51:23;;;;;;;0.70;0.50;;;12.50;99.90;;;;;;5076669;28;20514;-70
2022/12/23 09:53:55;;;;;;;0.30;0.30;;;12.40;99.90;;;;;;5076613;28;20549;-70
2022/12/23 09:56:27;;;;;;;0.87;0.87;;;12.40;99.90;;;;;;5076173;28;20197;-70
2022/12/23 09:58:59;;;;;;;0.30;0.30;;;12.30;99.90;;;;;;5076303;28;20479;-70
2022/12/23 10:02:13;;;;;;;0.30;0.30;;;12.40;99.90;;;;;;5076624;28;20391;-70
2022/12/23 10:05:20;;;;;;;0.30;0.30;;;12.40;99.90;;;;;;5072773;28;20861;-70
2022/12/23 10:07:50;;;;;;;0.30;0.30;;;12.40;99.90;;;;;;5075532;28;20428;-70
2022/12/23 10:10:25;;;;;;;0.33;0.33;;;12.40;99.90;;;;;;5075994;28;20449;-70
2022/12/23 10:12:52;;;;;;;0.40;0.40;;;12.50;99.90;;;;;;5076057;28;20440;-71
2022/12/23 10:15:29;;;;;;;0.70;0.70;;;12.40;99.90;;;;;;5075940;28;20419;-69
2022/12/23 10:17:59;;;;;;;0.40;0.40;;;12.50;99.90;;;;;;5076438;28;20434;-69
2022/12/23 10:20:52;;;;;;;2.23;0.57;;;12.50;99.90;;;;;;5076042;28;20423;-69
2022/12/23 10:23:29;;;;;;;0.30;0.30;;;12.50;99.90;;;;;;5074316;28;20420;-70
2022/12/23 10:25:55;;;;;;;0.40;0.40;;;12.50;99.90;;;;;;5075724;28;20403;-70
2022/12/23 10:28:21;;;;;;;0.40;0.40;;;12.50;99.90;;;;;;5075830;28;20574;-70
2022/12/23 10:31:00;;;;;;;1.20;1.10;;;12.60;99.90;;;;;;5075694;28;20263;-70
2022/12/23 10:34:01;;;;;;;0.37;0.37;;;12.50;99.90;;;;;;5075063;28;20523;-69
2022/12/23 10:36:49;;;;;;;0.30;0.30;;;12.50;99.90;;;;;;5075123;28;20441;-70
2022/12/23 10:39:37;;;;;;;0.30;0.30;;;12.50;99.90;;;;;;5075803;28;20431;-70
2022/12/23 10:42:19;;;;;;;0.30;0.30;;;12.40;99.90;;;;;;5074972;28;20499;-70
2022/12/23 10:44:54;;;;;;;0.30;0.30;;;12.40;99.90;;;;;;5075478;28;20418;-70
2022/12/23 10:47:36;;;;;;;0.30;0.30;;;12.40;99.90;;;;;;5075674;28;20400;-70
2022/12/23 10:50:28;;;;;;;0.50;0.50;;;12.40;99.90;;;;;;5074247;28;20430;-70
2022/12/23 10:52:56;;;;;;;0.40;0.40;;;12.30;99.90;;;;;;5075247;28;20463;-69
2022/12/23 10:55:29;;;;;;;0.30;0.30;;;12.30;99.90;;;;;;5075218;28;20458;-70
2022/12/23 10:57:58;;;;;;;0.50;0.50;;;12.20;99.90;;;;;;5075236;28;20415;-70
2022/12/23 11:00:24;;;;;;;0.30;0.30;;;12.20;99.90;;;;;;5075081;28;20424;-70
2022/12/23 11:02:53;;;;;;;0.30;0.30;;;12.20;99.90;;;;;;5075192;28;20587;-70
2022/12/23 11:05:26;;;;;;;0.30;0.30;;;12.10;99.90;;;;;;5074843;28;20825;-69
2022/12/23 11:07:54;;;;;;;0.30;0.30;;;12.00;99.90;;;;;;5075172;28;20817;-69
2022/12/23 11:10:23;;;;;;;0.30;0.30;;;11.90;99.90;;;;;;5074887;28;20481;-70
2022/12/23 11:12:51;;;;;;;0.70;0.70;;;11.80;99.90;;;;;;5073901;28;20512;-70
2022/12/23 11:15:35;;;;;;;0.30;0.30;;;11.90;99.90;;;;;;5074752;28;20499;-70
2022/12/23 11:18:03;;;;;;;0.40;0.40;;;12.00;99.90;;;;;;5074882;28;20739;-70
2022/12/23 11:20:30;;;;;;;0.30;0.30;;;12.00;99.90;;;;;;5074790;28;20923;-70
2022/12/23 11:23:01;;;;;;;0.30;0.30;;;11.90;99.90;;;;;;5074698;28;20415;-70
2022/12/23 11:25:39;;;;;;;0.30;0.30;;;11.90;99.90;;;;;;5074603;28;20412;-70
2022/12/23 11:28:17;;;;;;;0.30;0.30;;;12.00;99.90;;;;;;5074889;28;20377;-69
2022/12/23 11:31:04;;;;;;;0.30;0.30;;;12.10;99.90;;;;;;5074552;28;20427;-69
2022/12/23 11:33:31;;;;;;;0.37;0.37;;;12.30;99.90;;;;;;5074673;28;20451;-70
2022/12/23 11:36:12;;;;;;;0.30;0.30;;;12.40;99.90;;;;;;5074414;28;20400;-70
2022/12/23 11:38:49;;;;;;;1.73;1.60;;;12.50;99.90;;;;;;5074530;28;20769;-70
2022/12/23 11:41:25;;;;;;;0.30;0.30;;;12.50;99.90;;;;;;5074528;28;20881;-70
2022/12/23 11:43:56;;;;;;;0.60;0.60;;;12.50;99.90;;;;;;5073086;28;20809;-70
2022/12/23 11:46:28;;;;;;;0.30;0.30;;;12.40;99.90;;;;;;5074299;28;20489;-70
2022/12/23 11:49:24;;;;;;;0.40;0.40;;;12.30;99.90;;;;;;5074138;28;20430;-70
2022/12/23 11:52:04;;;;;;;0.80;0.80;;;12.10;99.90;;;;;;5072676;28;20419;-70
2022/12/23 11:54:31;;;;;;;0.30;0.30;;;12.20;99.90;;;;;;5074142;28;20408;-70
2022/12/23 11:56:59;;;;;;;0.30;0.30;;;12.20;99.90;;;;;;5074217;28;20392;-70
2022/12/23 11:59:49;;;;;;;0.30;0.30;;;12.00;99.90;;;;;;5074217;28;20781;-70
2022/12/23 12:02:27;;;;;;;0.30;0.30;;;12.10;99.90;;;;;;5074075;28;20534;-69
2022/12/23 12:05:00;;;;;;;0.50;0.40;;;12.00;99.90;;;;;;5073922;28;20406;-70
2022/12/23 12:07:26;;;;;;;0.30;0.30;;;12.10;99.90;;;;;;5074106;28;20394;-69
2022/12/23 12:09:56;;;;;;;0.30;0.30;;;12.30;99.90;;;;;;5074087;28;20495;-70
2022/12/23 12:12:22;;;;;;;0.50;0.50;;;12.40;99.90;;;;;;5074000;28;20399;-70
2022/12/23 12:14:53;;;;;;;0.30;0.30;;;12.50;99.90;;;;;;5073689;28;20408;-70
2022/12/23 12:17:35;;;;;;;0.30;0.30;;;12.60;99.90;;;;;;5073910;28;20189;-69
2022/12/23 12:20:19;;;;;;;0.77;0.77;;;12.50;99.90;;;;;;5073735;28;20423;-70
2022/12/23 12:22:51;;;;;;;0.30;0.30;;;12.40;99.90;;;;;;5073718;28;20399;-70
2022/12/23 12:25:18;;;;;;;0.40;0.40;;;12.20;99.90;;;;;;5073908;28;20412;-69
2022/12/23 12:27:59;;;;;;;0.40;0.40;;;12.20;99.90;;;;;;5073652;28;20437;-70
2022/12/23 12:30:32;;;;;;;0.30;0.30;;;12.20;99.90;;;;;;5073806;28;20511;-70
2022/12/23 12:33:14;;;;;;;0.30;0.30;;;12.30;99.90;;;;;;5073732;28;20450;-70
2022/12/23 12:35:45;;;;;;;0.40;0.40;;;12.30;99.90;;;;;;5073591;28;20396;-70
2022/12/23 12:38:25;;;;;;;0.30;0.30;;;12.20;99.90;;;;;;5073495;28;20412;-69
2022/12/23 12:41:06;;;;;;;0.30;0.30;;;12.30;99.90;;;;;;5073388;28;20430;-70
2022/12/23 12:43:35;;;;;;;0.40;0.40;;;12.40;99.90;;;;;;5073665;28;20912;-70
2022/12/23 12:46:35;;;;;;;0.40;0.40;;;12.50;99.90;;;;;;5073413;28;20403;-70
2022/12/23 12:49:37;;;;;;;0.30;0.30;;;12.50;99.90;;;;;;5072968;28;20850;-70
2022/12/23 12:52:11;;;;;;;0.30;0.30;;;12.50;99.90;;;;;;5073069;28;20492;-70
2022/12/23 12:54:56;;;;;;;0.30;0.30;;;12.50;99.90;;;;;;5073234;28;20407;-69
2022/12/23 12:57:22;;;;;;;0.30;0.30;;;12.40;99.90;;;;;;5073638;28;20392;-69
2022/12/23 12:59:51;;;;;;;0.40;0.40;;;12.20;99.90;;;;;;5073226;28;20510;-70
2022/12/23 13:02:42;;;;;;;0.30;0.30;;;12.20;99.90;;;;;;5073651;28;20805;-70
2022/12/23 13:05:17;;;;;;;0.30;0.30;;;12.20;99.90;;;;;;5077004;28;20399;-69
2022/12/23 13:08:01;;;;;;;0.30;0.30;;;12.10;99.90;;;;;;5077502;28;20419;-70
2022/12/23 13:10:34;;;;;;;0.30;0.30;;;12.10;99.90;;;;;;5077279;28;20494;-70
2022/12/23 13:13:05;;;;;;;0.60;0.60;;;12.00;99.90;;;;;;5077278;28;20461;-70
2022/12/23 13:15:42;;;;;;;0.60;0.60;;;12.10;99.90;;;;;;5077214;28;20487;-70
2022/12/23 13:18:19;;;;;;;0.33;0.33;;;12.30;99.90;;;;;;5077386;28;20478;-69
2022/12/23 13:21:03;;;;;;;0.30;0.30;;;12.30;99.90;;;;;;5077025;28;20419;-69
2022/12/23 13:23:48;;;;;;;0.40;0.40;;;12.30;99.90;;;;;;5077151;28;20403;-69
2022/12/23 13:26:28;;;;;;;0.30;0.30;;;12.10;99.90;;;;;;5077086;28;20900;-69
2022/12/23 13:29:19;;;;;;;0.30;0.30;;;12.20;99.90;;;;;;5076988;28;20399;-70
2022/12/23 13:32:03;;;;;;;0.40;0.40;;;12.20;99.90;;;;;;5076897;28;20376;-69
2022/12/23 13:34:44;;;;;;;0.30;0.30;;;12.20;99.90;;;;;;5076797;28;20461;-69
2022/12/23 13:37:52;;;;;;;0.30;0.30;;;12.20;99.90;;;;;;5076691;28;20428;-70